Time;durP1;ratioP1;P1;durP2;ratioP2;P2;SDS_P1;SDS_P2;PMS_P1;PMS_P2;Temp;Humidity;BMP_temperature;BMP_pressure;BME280_temperature;BME280_humidity;BME280_pressure;Samples;Min_cycle;Max_cycle;Signal;HPM_P1;HPM_P2
2022/01/02 00:01:13;;;;;;;10.13;5.93;;;;;;;;;;4753255;30;20191;-89
2022/01/02 00:04:45;;;;;;;10.57;7.50;;;;;;;;;;4753099;30;20643;-89
2022/01/02 00:08:09;;;;;;;9.40;6.50;;;;;;;;;;4752991;30;20238;-89
2022/01/02 00:11:32;;;;;;;8.97;6.60;;;;;;;;;;4745286;30;20548;-89
2022/01/02 00:14:58;;;;;;;9.30;6.97;;;;;;;;;;4737254;30;20679;-89
2022/01/02 00:18:20;;;;;;;13.83;7.93;;;;;;;;;;4752657;30;20234;-89
2022/01/02 00:21:46;;;;;;;11.67;7.37;;;;;;;;;;4737372;30;20195;-89
2022/01/02 00:25:18;;;;;;;11.47;7.73;;;;;;;;;;4752984;30;20183;-89
2022/01/02 00:28:45;;;;;;;11.77;7.53;;;;;;;;;;4752849;30;20568;-90
2022/01/02 00:32:10;;;;;;;11.90;8.03;;;;;;;;;;4744794;30;20191;-89
2022/01/02 00:35:32;;;;;;;13.93;9.17;;;;;;;;;;4745141;30;20282;-89
2022/01/02 00:38:55;;;;;;;13.13;8.23;;;;;;;;;;4737164;30;20226;-89
2022/01/02 00:42:30;;;;;;;13.10;9.00;;;;;;;;;;4753178;30;20191;-89
2022/01/02 00:45:53;;;;;;;14.17;8.43;;;;;;;;;;4744992;30;20652;-89
2022/01/02 00:49:25;;;;;;;11.80;8.37;;;;;;;;;;4752290;30;20227;-89
2022/01/02 00:52:50;;;;;;;12.87;8.43;;;;;;;;;;4737601;30;20211;-89
2022/01/02 00:56:17;;;;;;;12.47;7.50;;;;;;;;;;4752544;30;20253;-90
2022/01/02 00:59:50;;;;;;;14.53;8.63;;;;;;;;;;4752405;30;20183;-89
2022/01/02 01:03:20;;;;;;;12.17;7.90;;;;;;;;;;4752592;30;20195;-89
2022/01/02 01:06:49;;;;;;;14.53;7.97;;;;;;;;;;4747840;30;20187;-89
2022/01/02 01:10:15;;;;;;;12.07;7.40;;;;;;;;;;4747832;30;20195;-89
2022/01/02 01:13:37;;;;;;;10.80;7.70;;;;;;;;;;4747962;30;20191;-89
2022/01/02 01:16:59;;;;;;;13.53;7.70;;;;;;;;;;4747848;30;20187;-89
2022/01/02 01:20:34;;;;;;;11.67;7.03;;;;;;;;;;4755744;30;20195;-89
2022/01/02 01:23:57;;;;;;;11.13;7.03;;;;;;;;;;4755814;30;20195;-90
2022/01/02 01:27:20;;;;;;;10.07;7.30;;;;;;;;;;4747574;30;20648;-90
2022/01/02 01:30:43;;;;;;;15.70;7.27;;;;;;;;;;4741367;30;20199;-89
2022/01/02 01:34:06;;;;;;;11.80;7.10;;;;;;;;;;4742021;30;20536;-90
2022/01/02 01:37:30;;;;;;;11.83;7.10;;;;;;;;;;4747719;30;20192;-90
2022/01/02 01:40:58;;;;;;;10.40;7.10;;;;;;;;;;4747495;30;20191;-90
2022/01/02 01:47:45;;;;;;;9.57;6.40;;;;;;;;;;4755219;30;20218;-89
2022/01/02 01:51:08;;;;;;;12.03;6.97;;;;;;;;;;4747224;30;20196;-89
2022/01/02 01:54:31;;;;;;;15.17;7.30;;;;;;;;;;4754093;30;20608;-89
2022/01/02 01:57:54;;;;;;;11.93;7.43;;;;;;;;;;4756736;30;20575;-90
2022/01/02 02:01:18;;;;;;;10.03;7.27;;;;;;;;;;4757119;30;20565;-90
2022/01/02 02:04:48;;;;;;;12.07;7.50;;;;;;;;;;4765391;30;20191;-90
2022/01/02 02:08:16;;;;;;;11.20;7.10;;;;;;;;;;4764595;30;20242;-90
2022/01/02 02:11:39;;;;;;;10.53;6.93;;;;;;;;;;4756949;30;20560;-90
2022/01/02 02:15:03;;;;;;;10.40;7.07;;;;;;;;;;4756491;30;20218;-90
2022/01/02 02:18:27;;;;;;;11.33;7.20;;;;;;;;;;4772082;30;20636;-90
2022/01/02 02:21:50;;;;;;;10.57;7.23;;;;;;;;;;4756317;30;20191;-89
2022/01/02 02:25:18;;;;;;;12.90;7.40;;;;;;;;;;4764388;30;21113;-90
2022/01/02 02:28:40;;;;;;;12.17;7.30;;;;;;;;;;4756368;30;20218;-89
2022/01/02 02:32:03;;;;;;;8.37;6.23;;;;;;;;;;4772257;30;20198;-90
2022/01/02 02:35:27;;;;;;;8.07;6.00;;;;;;;;;;4764464;30;20218;-91
2022/01/02 02:38:50;;;;;;;14.47;8.40;;;;;;;;;;4756172;30;20722;-89
2022/01/02 02:42:26;;;;;;;10.57;6.93;;;;;;;;;;4756283;30;20199;-89
2022/01/02 02:49:29;;;;;;;10.60;6.60;;;;;;;;;;4771763;30;20973;-90
2022/01/02 02:52:54;;;;;;;11.10;7.77;;;;;;;;;;4772372;30;20557;-90
2022/01/02 02:56:24;;;;;;;12.33;6.63;;;;;;;;;;4772058;30;20604;-89
2022/01/02 02:59:47;;;;;;;12.93;7.27;;;;;;;;;;4771808;30;20553;-89
2022/01/02 03:03:10;;;;;;;12.97;7.03;;;;;;;;;;4738053;30;20899;-89
2022/01/02 03:06:33;;;;;;;12.63;6.57;;;;;;;;;;4753849;30;20566;-89
2022/01/02 03:09:58;;;;;;;11.40;6.90;;;;;;;;;;4804508;24;20687;-86
2022/01/02 03:13:21;;;;;;;10.40;6.80;;;;;;;;;;4772920;30;20567;-86
2022/01/02 03:16:45;;;;;;;8.53;6.23;;;;;;;;;;4778574;30;20627;-86
2022/01/02 03:20:08;;;;;;;10.73;7.10;;;;;;;;;;4781110;30;20647;-86
2022/01/02 03:23:31;;;;;;;11.43;7.47;;;;;;;;;;4762575;30;20569;-86
2022/01/02 03:26:54;;;;;;;10.30;6.53;;;;;;;;;;4754335;30;20557;-86
2022/01/02 03:30:18;;;;;;;9.93;6.70;;;;;;;;;;4754950;30;20564;-86
2022/01/02 03:33:42;;;;;;;11.90;7.57;;;;;;;;;;4762451;30;20569;-86
2022/01/02 03:37:05;;;;;;;8.23;6.30;;;;;;;;;;4762524;30;21191;-86
2022/01/02 03:40:30;;;;;;;9.33;6.20;;;;;;;;;;4762609;30;20557;-86
2022/01/02 03:43:53;;;;;;;10.10;7.17;;;;;;;;;;4786279;30;20607;-86
2022/01/02 03:47:16;;;;;;;8.87;6.20;;;;;;;;;;4780680;30;20552;-86
2022/01/02 03:50:39;;;;;;;12.77;7.53;;;;;;;;;;4780301;30;21084;-86
2022/01/02 03:54:02;;;;;;;10.43;6.80;;;;;;;;;;4780122;30;20909;-86
2022/01/02 03:57:25;;;;;;;12.00;7.77;;;;;;;;;;4788562;30;21092;-86
2022/01/02 04:00:50;;;;;;;13.37;7.33;;;;;;;;;;4780161;30;20603;-86
2022/01/02 04:04:12;;;;;;;9.67;6.60;;;;;;;;;;4780107;30;20556;-86
2022/01/02 04:07:36;;;;;;;11.13;6.70;;;;;;;;;;4779971;30;20556;-86
2022/01/02 04:10:58;;;;;;;10.53;6.80;;;;;;;;;;4772063;30;20976;-86
2022/01/02 04:14:22;;;;;;;11.03;6.33;;;;;;;;;;4787901;30;20572;-86
2022/01/02 04:17:44;;;;;;;8.77;6.20;;;;;;;;;;4788188;30;20556;-86
2022/01/02 04:21:09;;;;;;;7.73;5.97;;;;;;;;;;4788299;30;20556;-86
2022/01/02 04:24:31;;;;;;;10.10;6.57;;;;;;;;;;4780359;30;20559;-86
2022/01/02 04:27:54;;;;;;;11.57;6.80;;;;;;;;;;4780158;30;21117;-86
2022/01/02 04:31:19;;;;;;;10.07;6.43;;;;;;;;;;4779663;30;20572;-86
2022/01/02 04:34:43;;;;;;;7.87;5.80;;;;;;;;;;4780445;30;20572;-86
2022/01/02 04:38:07;;;;;;;9.67;6.13;;;;;;;;;;4780834;29;20627;-86
2022/01/02 04:41:30;;;;;;;11.03;6.43;;;;;;;;;;4784148;30;20581;-86
2022/01/02 04:44:53;;;;;;;9.53;5.80;;;;;;;;;;4783556;30;20560;-86
2022/01/02 04:48:15;;;;;;;9.13;5.50;;;;;;;;;;4783376;30;20635;-86
2022/01/02 04:51:39;;;;;;;8.77;5.40;;;;;;;;;;4783730;30;20552;-86
2022/01/02 04:55:03;;;;;;;8.30;5.70;;;;;;;;;;4782969;30;20568;-86
2022/01/02 04:58:26;;;;;;;8.07;4.97;;;;;;;;;;4783197;30;20639;-86
2022/01/02 05:01:49;;;;;;;9.37;5.40;;;;;;;;;;4783226;30;20900;-86
2022/01/02 05:05:12;;;;;;;8.13;5.43;;;;;;;;;;4775122;30;20571;-86
2022/01/02 05:08:34;;;;;;;7.50;5.13;;;;;;;;;;4782462;30;20647;-86
2022/01/02 05:11:58;;;;;;;10.63;5.90;;;;;;;;;;4782796;30;20571;-86
2022/01/02 05:15:21;;;;;;;6.63;4.87;;;;;;;;;;4790876;30;20572;-86
2022/01/02 05:18:45;;;;;;;7.90;5.50;;;;;;;;;;4782525;30;20639;-86
2022/01/02 05:22:07;;;;;;;9.30;6.03;;;;;;;;;;4782991;30;20559;-86
2022/01/02 05:25:31;;;;;;;8.70;5.73;;;;;;;;;;4782463;30;20929;-86
2022/01/02 05:28:54;;;;;;;9.97;6.53;;;;;;;;;;4782656;30;20642;-86
2022/01/02 05:32:17;;;;;;;6.93;5.63;;;;;;;;;;4783062;30;20619;-86
2022/01/02 05:35:55;;;;;;;10.10;6.07;;;;;;;;;;4791066;30;20961;-86
2022/01/02 05:39:19;;;;;;;8.73;5.93;;;;;;;;;;4782311;30;20627;-86
2022/01/02 05:42:41;;;;;;;7.67;5.30;;;;;;;;;;4790444;30;20564;-86
2022/01/02 05:46:33;;;;;;;9.57;6.47;;;;;;;;;;4782183;30;20572;-86
2022/01/02 05:50:04;;;;;;;8.07;5.93;;;;;;;;;;4772458;29;20662;-86
2022/01/02 05:53:29;;;;;;;9.17;6.43;;;;;;;;;;4790136;30;21135;-86
2022/01/02 05:57:00;;;;;;;9.73;6.43;;;;;;;;;;4790009;30;20611;-86
2022/01/02 06:00:31;;;;;;;9.63;6.10;;;;;;;;;;4782283;30;20564;-86
2022/01/02 06:04:00;;;;;;;8.33;5.90;;;;;;;;;;4790709;30;20548;-86
2022/01/02 06:07:27;;;;;;;8.70;6.07;;;;;;;;;;4767036;30;20557;-86
2022/01/02 06:10:51;;;;;;;8.70;6.17;;;;;;;;;;4767039;30;20560;-86
2022/01/02 06:14:16;;;;;;;8.43;6.37;;;;;;;;;;4773812;30;20905;-86
2022/01/02 06:17:40;;;;;;;9.23;6.00;;;;;;;;;;4773806;30;20615;-86
2022/01/02 06:22:04;;;;;;;9.00;6.53;;;;;;;;;;4782870;30;20556;-86
2022/01/02 06:25:27;;;;;;;11.90;6.37;;;;;;;;;;4773773;30;20548;-86
2022/01/02 06:28:49;;;;;;;10.93;6.33;;;;;;;;;;4773416;29;20635;-86
2022/01/02 06:32:12;;;;;;;8.17;6.23;;;;;;;;;;4781493;30;20556;-86
2022/01/02 06:35:35;;;;;;;12.20;6.27;;;;;;;;;;4773353;30;20567;-86
2022/01/02 06:38:58;;;;;;;10.67;6.20;;;;;;;;;;4781120;29;20639;-86
2022/01/02 06:42:24;;;;;;;11.40;7.23;;;;;;;;;;4773311;30;20576;-86
2022/01/02 06:45:48;;;;;;;11.17;6.43;;;;;;;;;;4781166;30;20568;-86
2022/01/02 06:49:11;;;;;;;12.53;6.77;;;;;;;;;;4765159;30;20651;-86
2022/01/02 06:52:34;;;;;;;10.03;6.20;;;;;;;;;;4755642;30;20894;-87
2022/01/02 06:55:57;;;;;;;16.23;6.73;;;;;;;;;;4763131;30;20576;-87
2022/01/02 06:59:19;;;;;;;12.13;6.67;;;;;;;;;;4754944;30;20640;-87
2022/01/02 07:02:42;;;;;;;10.10;6.33;;;;;;;;;;4755380;30;20561;-85
2022/01/02 07:06:13;;;;;;;12.83;7.67;;;;;;;;;;4762886;30;20569;-87
2022/01/02 07:10:01;;;;;;;9.33;6.30;;;;;;;;;;4771671;30;20640;-87
2022/01/02 07:13:26;;;;;;;16.17;8.93;;;;;;;;;;4763427;30;20568;-86
2022/01/02 07:16:49;;;;;;;9.93;6.33;;;;;;;;;;4762714;30;20620;-86
2022/01/02 07:20:13;;;;;;;11.83;6.90;;;;;;;;;;4755318;30;20569;-86
2022/01/02 07:23:36;;;;;;;9.30;6.40;;;;;;;;;;4755148;30;21088;-87
2022/01/02 07:27:03;;;;;;;13.83;7.27;;;;;;;;;;4755162;30;20561;-86
2022/01/02 07:30:27;;;;;;;12.63;6.60;;;;;;;;;;4755301;30;20561;-86
2022/01/02 07:34:11;;;;;;;12.07;6.73;;;;;;;;;;4754907;30;20898;-87
2022/01/02 07:37:44;;;;;;;10.77;6.40;;;;;;;;;;4762601;30;21167;-87
2022/01/02 07:41:18;;;;;;;10.30;5.67;;;;;;;;;;4771127;30;21163;-87
2022/01/02 07:45:07;;;;;;;9.73;6.13;;;;;;;;;;4755051;30;20573;-87
2022/01/02 07:48:31;;;;;;;8.60;5.70;;;;;;;;;;4762101;30;20632;-87
2022/01/02 07:52:03;;;;;;;8.00;5.37;;;;;;;;;;4754641;30;20573;-87
2022/01/02 07:55:25;;;;;;;8.33;5.23;;;;;;;;;;4762731;30;20557;-87
2022/01/02 07:58:55;;;;;;;7.63;5.00;;;;;;;;;;4762378;30;20655;-87
2022/01/02 08:02:23;;;;;;;6.90;4.80;;;;;;;;;;4780933;30;21099;-87
2022/01/02 08:05:46;;;;;;;8.00;5.30;;;;;;;;;;4762073;30;20564;-86
2022/01/02 08:09:08;;;;;;;7.33;4.93;;;;;;;;;;4770251;30;20647;-87
2022/01/02 08:12:32;;;;;;;10.13;5.33;;;;;;;;;;4761518;30;20564;-87
2022/01/02 08:15:55;;;;;;;8.67;5.50;;;;;;;;;;4762491;30;20198;-87
2022/01/02 08:19:22;;;;;;;8.40;5.57;;;;;;;;;;4753916;30;20636;-87
2022/01/02 08:22:56;;;;;;;8.03;5.23;;;;;;;;;;4770162;30;20576;-87
2022/01/02 08:26:24;;;;;;;7.87;5.27;;;;;;;;;;4754364;30;20191;-87
2022/01/02 08:29:47;;;;;;;11.67;5.80;;;;;;;;;;4754225;30;20632;-87
2022/01/02 08:33:10;;;;;;;7.40;5.23;;;;;;;;;;4770468;30;20190;-86
2022/01/02 08:36:33;;;;;;;9.60;5.20;;;;;;;;;;4761982;30;20218;-86
2022/01/02 08:39:55;;;;;;;7.37;5.13;;;;;;;;;;4761571;30;20222;-87
2022/01/02 08:43:19;;;;;;;7.90;5.60;;;;;;;;;;4769586;30;20567;-87
2022/01/02 08:46:41;;;;;;;9.43;6.10;;;;;;;;;;4754261;30;20186;-86
2022/01/02 08:50:31;;;;;;;9.17;5.97;;;;;;;;;;4779242;30;20234;-89
2022/01/02 08:54:01;;;;;;;8.67;6.40;;;;;;;;;;4780481;30;20189;-87
2022/01/02 09:02:03;;;;;;;9.93;6.60;;;;;;;;;;4788169;30;20201;-87
2022/01/02 09:05:27;;;;;;;15.40;6.63;;;;;;;;;;4779613;30;20186;-86
2022/01/02 09:09:09;;;;;;;8.93;6.40;;;;;;;;;;4818063;24;20241;-89
2022/01/02 09:12:38;;;;;;;9.53;6.07;;;;;;;;;;4805773;29;20193;-89
2022/01/02 09:16:02;;;;;;;9.37;6.50;;;;;;;;;;4797195;29;20197;-89
2022/01/02 09:19:26;;;;;;;10.03;6.80;;;;;;;;;;4805611;29;20233;-88
2022/01/02 09:22:48;;;;;;;10.53;6.83;;;;;;;;;;4805432;29;20190;-89
2022/01/02 09:26:10;;;;;;;11.63;7.80;;;;;;;;;;4807610;29;20197;-89
2022/01/02 09:29:33;;;;;;;10.07;7.67;;;;;;;;;;4809015;29;20224;-89
2022/01/02 09:32:57;;;;;;;11.10;7.13;;;;;;;;;;4808769;29;20637;-89
2022/01/02 09:36:19;;;;;;;12.07;6.87;;;;;;;;;;4809046;29;20198;-89
2022/01/02 09:39:45;;;;;;;9.93;6.90;;;;;;;;;;4808521;29;20225;-89
2022/01/02 09:43:07;;;;;;;9.60;6.67;;;;;;;;;;4808229;29;20201;-89
2022/01/02 09:46:30;;;;;;;8.83;6.83;;;;;;;;;;4809111;29;20197;-88
2022/01/02 09:49:52;;;;;;;7.83;6.23;;;;;;;;;;4791561;29;20574;-87
2022/01/02 09:53:14;;;;;;;5.73;4.77;;;;;;;;;;4782456;30;20194;-87
2022/01/02 09:56:19;;;;;;;7.53;5.20;;;;;;;;;;4780208;30;20197;-87
2022/01/02 09:59:23;;;;;;;6.63;4.00;;;;;;;;;;4769789;30;20214;-87
2022/01/02 10:03:03;;;;;;;6.40;4.17;;;;;;;;;;4780306;29;20201;-87
2022/01/02 10:06:07;;;;;;;6.27;3.80;;;;;;;;;;4808007;29;20201;-88
2022/01/02 10:09:28;;;;;;;5.60;4.10;;;;;;;;;;4786944;29;20225;-88
2022/01/02 10:12:33;;;;;;;5.50;4.23;;;;;;;;;;4798335;29;20190;-87
2022/01/02 10:15:38;;;;;;;4.57;3.53;;;;;;;;;;4798261;29;20201;-85
2022/01/02 10:18:41;;;;;;;5.67;3.97;;;;;;;;;;4797807;29;20236;-86
2022/01/02 10:21:59;;;;;;;9.17;6.37;;;;;;;;;;4797975;29;20196;-86
2022/01/02 10:25:04;;;;;;;36.97;19.90;;;;;;;;;;4797533;29;20189;-86
2022/01/02 10:28:33;;;;;;;71.83;45.07;;;;;;;;;;4808748;29;20185;-86
2022/01/02 10:31:37;;;;;;;14.03;10.83;;;;;;;;;;4797825;29;20189;-86
2022/01/02 10:34:41;;;;;;;10.27;9.20;;;;;;;;;;4798086;29;20189;-86
2022/01/02 10:38:01;;;;;;;4.83;3.97;;;;;;;;;;4807761;29;20689;-86
2022/01/02 10:41:05;;;;;;;4.33;3.37;;;;;;;;;;4797450;29;20193;-86
2022/01/02 10:44:29;;;;;;;4.03;3.20;;;;;;;;;;4797431;29;20185;-86
2022/01/02 10:47:33;;;;;;;5.10;2.97;;;;;;;;;;4797266;29;20633;-86
2022/01/02 10:50:39;;;;;;;4.43;3.50;;;;;;;;;;4797293;29;20189;-86
2022/01/02 10:53:55;;;;;;;3.30;2.33;;;;;;;;;;4797458;29;20189;-86
2022/01/02 10:57:00;;;;;;;1.47;1.30;;;;;;;;;;4787526;29;20193;-86
2022/01/02 11:00:05;;;;;;;20.20;17.07;;;;;;;;;;4797289;29;20221;-86
2022/01/02 11:03:09;;;;;;;10.47;9.47;;;;;;;;;;4807689;29;20192;-86
2022/01/02 11:06:43;;;;;;;5.90;5.30;;;;;;;;;;4786718;29;20525;-86
2022/01/02 11:09:49;;;;;;;3.40;2.03;;;;;;;;;;4786360;29;20228;-87
2022/01/02 11:12:53;;;;;;;3.27;2.83;;;;;;;;;;4807437;29;20181;-87
2022/01/02 11:16:00;;;;;;;5.93;5.33;;;;;;;;;;4796630;29;20189;-86
2022/01/02 11:19:05;;;;;;;5.10;2.63;;;;;;;;;;4796885;29;20236;-86
2022/01/02 11:22:21;;;;;;;2.57;1.90;;;;;;;;;;4807313;29;20185;-86
2022/01/02 11:25:50;;;;;;;2.03;1.60;;;;;;;;;;4796803;29;20197;-86
2022/01/02 11:28:56;;;;;;;1.90;1.73;;;;;;;;;;4807144;29;20220;-86
2022/01/02 11:32:20;;;;;;;2.20;1.70;;;;;;;;;;4796751;29;20193;-86
2022/01/02 11:35:31;;;;;;;2.40;1.60;;;;;;;;;;4797009;29;20189;-87
2022/01/02 11:38:43;;;;;;;1.73;1.53;;;;;;;;;;4796528;29;20593;-86
2022/01/02 11:41:51;;;;;;;1.90;1.43;;;;;;;;;;4796910;29;20637;-86
2022/01/02 11:44:56;;;;;;;2.10;1.80;;;;;;;;;;4807295;29;20208;-88
2022/01/02 11:48:27;;;;;;;2.73;1.53;;;;;;;;;;4819915;29;20174;-83
2022/01/02 11:51:47;;;;;;;2.43;1.67;;;;;;;;;;4807666;29;20185;-85
2022/01/02 11:54:53;;;;;;;4.57;1.93;;;;;;;;;;4785571;29;20534;-85
2022/01/02 11:57:57;;;;;;;3.47;1.57;;;;;;;;;;4796072;29;20221;-85
2022/01/02 12:01:01;;;;;;;1.80;1.50;;;;;;;;;;4786016;29;20189;-85
2022/01/02 12:04:05;;;;;;;2.97;1.87;;;;;;;;;;4796425;29;20193;-85
2022/01/02 12:07:35;;;;;;;2.90;1.50;;;;;;;;;;4796308;29;20193;-86
2022/01/02 12:10:44;;;;;;;2.97;1.80;;;;;;;;;;4795867;29;20250;-87
2022/01/02 12:14:18;;;;;;;2.43;1.73;;;;;;;;;;4796747;29;20511;-88
2022/01/02 12:17:25;;;;;;;3.07;1.87;;;;;;;;;;4795936;29;20531;-88
2022/01/02 12:20:29;;;;;;;1.87;1.40;;;;;;;;;;4787273;29;20220;-88
2022/01/02 12:23:33;;;;;;;2.20;1.70;;;;;;;;;;4797522;29;20208;-87
2022/01/02 12:26:39;;;;;;;2.23;1.60;;;;;;;;;;4808700;29;20641;-87
2022/01/02 12:29:43;;;;;;;3.10;1.73;;;;;;;;;;4795585;29;20217;-88
2022/01/02 12:32:48;;;;;;;4.37;2.37;;;;;;;;;;4788320;29;20197;-87
2022/01/02 12:35:52;;;;;;;4.33;2.03;;;;;;;;;;4796965;29;20204;-88
2022/01/02 12:39:05;;;;;;;5.10;4.60;;;;;;;;;;4797235;29;20716;-86
2022/01/02 12:42:14;;;;;;;4.10;3.13;;;;;;;;;;4786651;29;20193;-85
2022/01/02 12:45:18;;;;;;;2.40;1.93;;;;;;;;;;4795282;29;20189;-87
2022/01/02 12:48:35;;;;;;;2.60;2.00;;;;;;;;;;4796481;29;20185;-86
2022/01/02 12:51:46;;;;;;;2.40;1.97;;;;;;;;;;4796482;29;20190;-85
2022/01/02 12:54:50;;;;;;;2.67;2.20;;;;;;;;;;4796260;29;20645;-86
2022/01/02 12:58:06;;;;;;;3.37;1.60;;;;;;;;;;4796828;29;20538;-86
2022/01/02 13:01:11;;;;;;;2.13;1.70;;;;;;;;;;4799335;29;20534;-86
2022/01/02 13:04:17;;;;;;;3.00;1.90;;;;;;;;;;4789457;29;20189;-85
2022/01/02 13:07:30;;;;;;;2.93;1.97;;;;;;;;;;4799049;29;20208;-86
2022/01/02 13:10:34;;;;;;;2.83;1.80;;;;;;;;;;4798527;29;20208;-88
2022/01/02 13:13:38;;;;;;;1.83;1.60;;;;;;;;;;4809440;29;20188;-87
2022/01/02 13:16:42;;;;;;;2.13;1.43;;;;;;;;;;4798685;29;20193;-86
2022/01/02 13:20:08;;;;;;;2.13;1.20;;;;;;;;;;4798785;29;20232;-86
2022/01/02 13:23:12;;;;;;;2.20;1.20;;;;;;;;;;4798967;29;20197;-87
2022/01/02 13:26:20;;;;;;;1.23;1.07;;;;;;;;;;4799170;29;20185;-85
2022/01/02 13:29:26;;;;;;;1.20;1.00;;;;;;;;;;4798840;29;20566;-85
2022/01/02 13:32:39;;;;;;;1.40;1.10;;;;;;;;;;4799080;29;20181;-85
2022/01/02 13:35:45;;;;;;;3.23;1.40;;;;;;;;;;4798909;29;20197;-88
2022/01/02 13:38:58;;;;;;;3.03;1.63;;;;;;;;;;4798382;29;20232;-85
2022/01/02 13:42:02;;;;;;;2.70;2.30;;;;;;;;;;4798466;29;20209;-86
2022/01/02 13:45:10;;;;;;;2.83;1.60;;;;;;;;;;4798281;29;20189;-87
2022/01/02 13:48:26;;;;;;;1.97;1.40;;;;;;;;;;4808303;29;20178;-86
2022/01/02 13:51:32;;;;;;;3.90;1.50;;;;;;;;;;4798115;29;20204;-87
2022/01/02 13:54:36;;;;;;;1.90;1.20;;;;;;;;;;4798132;29;20534;-88
2022/01/02 13:57:40;;;;;;;3.37;2.00;;;;;;;;;;4798333;29;20185;-88
2022/01/02 14:00:47;;;;;;;2.67;2.10;;;;;;;;;;4797894;29;20185;-88
2022/01/02 14:04:00;;;;;;;2.73;1.70;;;;;;;;;;4798337;29;20189;-86
2022/01/02 14:07:08;;;;;;;2.37;1.80;;;;;;;;;;4797683;29;20200;-87
2022/01/02 14:10:15;;;;;;;2.37;1.60;;;;;;;;;;4797230;29;20736;-86
2022/01/02 14:13:20;;;;;;;3.37;1.60;;;;;;;;;;4787660;29;20185;-86
2022/01/02 14:19:48;;;;;;;2.40;1.70;;;;;;;;;;4808881;29;20236;-85
2022/01/02 14:22:52;;;;;;;2.20;1.60;;;;;;;;;;4797744;29;20641;-86
2022/01/02 14:25:57;;;;;;;1.67;1.20;;;;;;;;;;4798506;29;20185;-87
2022/01/02 14:29:02;;;;;;;2.50;1.57;;;;;;;;;;4797589;29;20221;-87
2022/01/02 14:32:09;;;;;;;3.50;1.63;;;;;;;;;;4797818;29;20527;-85
2022/01/02 14:35:16;;;;;;;1.97;1.20;;;;;;;;;;4776950;29;20192;-86
2022/01/02 14:38:21;;;;;;;1.80;1.50;;;;;;;;;;4797285;29;20661;-87
2022/01/02 14:41:37;;;;;;;1.43;1.20;;;;;;;;;;4798203;29;20189;-87
2022/01/02 14:44:42;;;;;;;2.60;2.33;;;;;;;;;;4797218;29;20668;-87
2022/01/02 14:47:46;;;;;;;3.27;2.33;;;;;;;;;;4796771;29;20660;-86
2022/01/02 14:50:50;;;;;;;4.80;3.30;;;;;;;;;;4786953;29;20201;-85
2022/01/02 14:53:54;;;;;;;3.43;3.07;;;;;;;;;;4787313;29;20189;-87
2022/01/02 14:57:01;;;;;;;4.10;2.87;;;;;;;;;;4809091;29;20192;-92
2022/01/02 15:00:09;;;;;;;2.43;1.83;;;;;;;;;;4815011;29;20240;-84
2022/01/02 15:03:14;;;;;;;1.83;1.47;;;;;;;;;;4807882;29;20196;-90
2022/01/02 15:06:18;;;;;;;24.30;14.30;;;;;;;;;;4805273;29;20188;-86
2022/01/02 15:09:22;;;;;;;33.77;19.80;;;;;;;;;;4846991;24;20599;-87
2022/01/02 15:12:27;;;;;;;44.80;22.03;;;;;;;;;;4774285;29;20204;-88
2022/01/02 15:15:33;;;;;;;45.40;21.87;;;;;;;;;;4766521;29;20204;-86
2022/01/02 15:18:39;;;;;;;49.40;25.00;;;;;;;;;;4786011;29;20580;-86
2022/01/02 15:21:43;;;;;;;19.37;12.90;;;;;;;;;;4765429;30;20217;-88
2022/01/02 15:24:47;;;;;;;4.87;4.20;;;;;;;;;;4740021;30;20216;-87
2022/01/02 15:28:15;;;;;;;8.43;4.73;;;;;;;;;;4757944;30;20209;-92
2022/01/02 15:31:19;;;;;;;45.67;20.83;;;;;;;;;;4759264;30;20637;-90
2022/01/02 15:34:24;;;;;;;23.10;9.50;;;;;;;;;;4757894;30;20192;-90
2022/01/02 15:37:29;;;;;;;31.43;13.47;;;;;;;;;;4768133;30;20189;-90
2022/01/02 15:40:33;;;;;;;28.47;14.20;;;;;;;;;;4767880;30;20634;-89
2022/01/02 15:43:38;;;;;;;26.23;11.77;;;;;;;;;;4750376;30;20201;-91
2022/01/02 15:46:43;;;;;;;33.57;14.33;;;;;;;;;;4760182;30;20193;-89
2022/01/02 15:49:48;;;;;;;22.30;9.57;;;;;;;;;;4750258;30;20228;-89
2022/01/02 15:52:52;;;;;;;10.03;4.00;;;;;;;;;;4750603;30;20190;-90
2022/01/02 15:55:57;;;;;;;15.63;6.43;;;;;;;;;;4750301;30;20539;-92
2022/01/02 15:59:30;;;;;;;4.10;2.63;;;;;;;;;;4750203;30;20226;-92
2022/01/02 16:03:15;;;;;;;2.17;1.60;;;;;;;;;;4757155;30;20652;-92
2022/01/02 17:06:37;;;;;;;4.50;1.83;;;;;;;;;;4810111;29;20588;-91
2022/01/02 17:09:41;;;;;;;3.03;2.03;;;;;;;;;;4779265;29;20684;-92
2022/01/02 17:12:46;;;;;;;4.63;2.30;;;;;;;;;;4781719;29;20181;-94
2022/01/02 17:15:52;;;;;;;4.30;2.20;;;;;;;;;;4790354;29;20189;-92
2022/01/02 17:18:56;;;;;;;2.97;1.83;;;;;;;;;;4778260;29;20185;-90
2022/01/02 17:22:01;;;;;;;5.07;2.13;;;;;;;;;;4788898;29;20181;-92
2022/01/02 17:25:12;;;;;;;4.33;1.93;;;;;;;;;;4780347;29;20184;-92
2022/01/02 17:28:16;;;;;;;3.93;2.57;;;;;;;;;;4789212;29;20549;-92
2022/01/02 17:31:21;;;;;;;4.50;2.73;;;;;;;;;;4788934;29;20181;-92
2022/01/02 17:34:26;;;;;;;6.03;2.60;;;;;;;;;;4778572;29;20641;-91
2022/01/02 17:37:30;;;;;;;6.30;3.60;;;;;;;;;;4783251;29;20189;-91
2022/01/02 17:40:38;;;;;;;5.43;2.83;;;;;;;;;;4790376;29;20233;-89
2022/01/02 17:43:47;;;;;;;5.53;3.17;;;;;;;;;;4788960;29;20181;-89
2022/01/02 17:46:55;;;;;;;6.57;2.90;;;;;;;;;;4787775;29;20193;-90
2022/01/02 17:49:59;;;;;;;6.33;2.67;;;;;;;;;;4760294;30;20233;-88
2022/01/02 17:53:03;;;;;;;7.57;4.60;;;;;;;;;;4769997;30;20205;-89
2022/01/02 17:56:07;;;;;;;4.97;3.57;;;;;;;;;;4769440;30;20201;-87
2022/01/02 17:59:12;;;;;;;5.77;3.47;;;;;;;;;;4769680;30;20228;-89
2022/01/02 18:02:16;;;;;;;5.87;2.90;;;;;;;;;;4769958;30;20186;-88
2022/01/02 18:05:20;;;;;;;3.63;2.50;;;;;;;;;;4769473;30;20213;-88
2022/01/02 18:08:28;;;;;;;5.50;3.70;;;;;;;;;;4769966;30;20177;-90
2022/01/02 18:12:05;;;;;;;4.30;3.30;;;;;;;;;;4770626;30;20185;-91
2022/01/02 18:15:13;;;;;;;5.50;3.53;;;;;;;;;;4771801;30;20189;-92
2022/01/02 18:18:17;;;;;;;6.50;3.93;;;;;;;;;;4769811;30;20185;-92
2022/01/02 18:21:22;;;;;;;6.80;4.77;;;;;;;;;;4779657;30;20220;-91
2022/01/02 18:24:57;;;;;;;5.60;2.90;;;;;;;;;;4769324;30;20189;-90
2022/01/02 18:28:01;;;;;;;6.50;4.73;;;;;;;;;;4769741;30;20182;-91
2022/01/02 18:31:05;;;;;;;13.60;7.87;;;;;;;;;;4769309;30;20229;-91
2022/01/02 18:34:09;;;;;;;9.67;5.87;;;;;;;;;;4769462;30;20186;-91
2022/01/02 18:37:15;;;;;;;12.93;7.53;;;;;;;;;;4769394;30;20642;-91
2022/01/02 18:40:19;;;;;;;9.07;6.47;;;;;;;;;;4759434;30;20237;-91
2022/01/02 18:43:24;;;;;;;11.27;7.37;;;;;;;;;;4768941;30;20205;-90
2022/01/02 18:46:29;;;;;;;7.37;5.27;;;;;;;;;;4759485;30;20205;-90
2022/01/02 18:49:34;;;;;;;5.73;4.13;;;;;;;;;;4768978;30;20229;-90
2022/01/02 18:52:39;;;;;;;3.93;2.93;;;;;;;;;;4769302;30;20190;-90
2022/01/02 18:55:44;;;;;;;4.20;2.33;;;;;;;;;;4768792;30;20193;-91
2022/01/02 18:58:48;;;;;;;4.73;2.60;;;;;;;;;;4768562;30;20205;-91
2022/01/02 19:01:52;;;;;;;6.43;2.60;;;;;;;;;;4779173;30;20185;-90
2022/01/02 19:04:57;;;;;;;71.83;33.27;;;;;;;;;;4768842;30;20210;-90
2022/01/02 19:08:01;;;;;;;9.67;5.47;;;;;;;;;;4779077;30;20221;-91
2022/01/02 19:11:11;;;;;;;4.40;3.07;;;;;;;;;;4778769;29;20225;-91
2022/01/02 19:14:15;;;;;;;4.70;3.03;;;;;;;;;;4786533;29;20626;-89
2022/01/02 19:17:19;;;;;;;5.30;3.47;;;;;;;;;;4786421;29;20204;-89
2022/01/02 19:20:24;;;;;;;4.47;3.40;;;;;;;;;;4786158;29;20589;-90
2022/01/02 19:23:28;;;;;;;5.80;4.10;;;;;;;;;;4785960;29;20189;-90
2022/01/02 19:26:32;;;;;;;6.87;3.90;;;;;;;;;;4786216;29;20189;-90
2022/01/02 19:29:36;;;;;;;4.43;2.37;;;;;;;;;;4786371;29;20224;-90
2022/01/02 19:32:41;;;;;;;4.60;2.57;;;;;;;;;;4776175;29;20221;-90
2022/01/02 19:35:47;;;;;;;5.80;2.50;;;;;;;;;;4806819;29;20205;-89
2022/01/02 19:38:51;;;;;;;4.37;2.60;;;;;;;;;;4785953;29;20645;-89
2022/01/02 19:41:55;;;;;;;3.40;2.07;;;;;;;;;;4786235;29;20645;-88
2022/01/02 19:45:00;;;;;;;4.70;2.37;;;;;;;;;;4785991;29;20561;-88
2022/01/02 19:48:05;;;;;;;6.40;2.57;;;;;;;;;;4773140;30;20197;-88
2022/01/02 19:51:09;;;;;;;5.80;2.30;;;;;;;;;;4778665;29;20217;-88
2022/01/02 19:54:14;;;;;;;4.13;2.10;;;;;;;;;;4776879;30;20209;-88
2022/01/02 19:57:18;;;;;;;3.83;2.47;;;;;;;;;;4767839;30;20189;-90
2022/01/02 20:00:23;;;;;;;2.90;2.10;;;;;;;;;;4777883;30;20233;-88
2022/01/02 20:03:27;;;;;;;3.97;2.70;;;;;;;;;;4767861;29;20657;-90
2022/01/02 20:06:33;;;;;;;3.20;2.30;;;;;;;;;;4795565;29;20193;-90
2022/01/02 20:09:37;;;;;;;6.63;2.53;;;;;;;;;;4805417;29;20832;-90
2022/01/02 20:12:41;;;;;;;3.37;2.60;;;;;;;;;;4775108;29;20196;-90
2022/01/02 20:15:45;;;;;;;5.60;2.40;;;;;;;;;;4785400;29;20634;-89
2022/01/02 20:18:50;;;;;;;5.77;3.73;;;;;;;;;;4775375;29;20185;-90
2022/01/02 20:21:55;;;;;;;5.93;3.60;;;;;;;;;;4778405;29;20688;-90
2022/01/02 20:24:59;;;;;;;5.27;3.40;;;;;;;;;;4777656;30;20185;-90
2022/01/02 20:28:10;;;;;;;5.57;3.40;;;;;;;;;;4767489;30;20638;-90
2022/01/02 20:31:14;;;;;;;5.87;2.80;;;;;;;;;;4757291;30;20579;-90
2022/01/02 20:34:18;;;;;;;4.97;2.93;;;;;;;;;;4757340;30;20189;-89
2022/01/02 20:37:22;;;;;;;6.33;2.80;;;;;;;;;;4780151;30;20209;-89
2022/01/02 20:40:27;;;;;;;8.47;3.20;;;;;;;;;;4769081;30;20237;-88
2022/01/02 20:43:31;;;;;;;6.10;4.00;;;;;;;;;;4758172;30;20193;-90
2022/01/02 20:46:37;;;;;;;8.67;4.07;;;;;;;;;;4757199;30;20586;-91